Time;durP1;ratioP1;P1;durP2;ratioP2;P2;SDS_P1;SDS_P2;PMS_P1;PMS_P2;Temp;Humidity;BMP_temperature;BMP_pressure;BME280_temperature;BME280_humidity;BME280_pressure;Samples;Min_cycle;Max_cycle;Signal;HPM_P1;HPM_P2
2024/03/10 00:01:44;;;;;;;0.70;0.70;;;;;;;-145.69;35.91;52208.72;5119718;27;20201;-80
2024/03/10 00:04:13;;;;;;;0.70;0.70;;;;;;;-145.69;35.81;52250.31;5133964;27;20208;-83
2024/03/10 00:06:39;;;;;;;0.90;0.80;;;;;;;-145.69;36.26;52250.31;5134102;27;20220;-83
2024/03/10 00:09:06;;;;;;;0.80;0.80;;;;;;;-145.69;35.97;52260.22;5129359;27;20472;-82
2024/03/10 00:11:35;;;;;;;2.30;0.85;;;;;;;-145.69;36.39;52226.53;5113298;28;20193;-83
2024/03/10 00:14:01;;;;;;;0.83;0.77;;;;;;;-145.69;35.94;52236.44;5113056;28;20201;-82
2024/03/10 00:16:31;;;;;;;1.87;0.90;;;;;;;-145.69;36.01;52232.50;5113184;28;20197;-82
2024/03/10 00:19:03;;;;;;;1.20;0.60;;;;;;;-145.69;36.12;52218.63;5113177;28;20633;-82
2024/03/10 00:21:33;;;;;;;0.95;0.73;;;;;;;-145.69;35.78;52226.53;5112661;28;20228;-82
2024/03/10 00:24:07;;;;;;;2.07;0.80;;;;;;;-145.69;35.66;52218.63;5112789;28;20644;-82
2024/03/10 00:26:37;;;;;;;3.13;0.70;;;;;;;-145.69;35.70;52186.94;5113486;28;20197;-82
2024/03/10 00:29:05;;;;;;;0.73;0.60;;;;;;;-145.69;35.70;52242.38;5112903;28;20197;-82
2024/03/10 00:31:32;;;;;;;1.00;0.70;;;;;;;-145.69;35.78;52222.59;5116534;27;20192;-82
2024/03/10 00:34:00;;;;;;;0.60;0.60;;;;;;;-145.69;35.21;52208.72;5112954;28;20201;-81
2024/03/10 00:36:29;;;;;;;0.60;0.57;;;;;;;-145.69;35.57;52206.75;5111803;28;20232;-82
2024/03/10 00:38:59;;;;;;;0.50;0.50;;;;;;;-145.69;35.47;52238.44;5112231;28;20225;-81
2024/03/10 00:41:32;;;;;;;2.38;0.65;;;;;;;-145.69;35.06;52218.63;5101004;28;20205;-81
2024/03/10 00:43:58;;;;;;;0.80;0.63;;;;;;;-145.69;34.87;52222.59;5112846;28;20200;-82
2024/03/10 00:46:28;;;;;;;1.08;0.98;;;;;;;-145.69;35.29;52220.59;5092658;28;20198;-82
2024/03/10 00:48:58;;;;;;;0.88;0.63;;;;;;;-145.69;35.19;52212.69;5092514;28;20661;-82
2024/03/10 00:51:29;;;;;;;1.10;0.60;;;;;;;-145.69;35.22;52226.53;5092509;28;20584;-81
2024/03/10 00:53:58;;;;;;;1.05;0.70;;;;;;;-145.69;34.52;52206.75;5112124;28;20236;-81
2024/03/10 00:56:29;;;;;;;0.77;0.60;;;;;;;-145.69;34.76;52222.59;5112700;27;20291;-82
2024/03/10 00:58:57;;;;;;;0.85;0.57;;;;;;;-145.69;35.07;52200.81;5112639;28;20208;-80
2024/03/10 01:01:25;;;;;;;0.88;0.80;;;;;;;-145.69;34.88;52232.50;5115534;28;20215;-82
2024/03/10 01:03:56;;;;;;;1.00;0.85;;;;;;;-145.69;34.98;52234.47;5113295;27;20205;-82
2024/03/10 01:06:23;;;;;;;0.88;0.70;;;;;;;-145.69;35.11;52210.72;5112532;28;20206;-82
2024/03/10 01:08:51;;;;;;;0.70;0.70;;;;;;;-145.69;35.12;52167.13;5112305;27;20713;-81
2024/03/10 01:11:19;;;;;;;1.65;0.65;;;;;;;-145.69;35.17;52212.69;5112358;28;20193;-81
2024/03/10 01:13:50;;;;;;;1.38;0.52;;;;;;;-145.69;34.41;52214.66;5111991;28;20201;-82
2024/03/10 01:16:17;;;;;;;0.70;0.57;;;;;;;-145.69;34.84;52220.59;5112458;27;20201;-81
2024/03/10 01:18:43;;;;;;;0.50;0.50;;;;;;;-145.69;34.27;52222.59;5112307;28;20197;-81
2024/03/10 01:21:13;;;;;;;0.60;0.60;;;;;;;-145.69;34.58;52182.97;5112435;28;20276;-82
2024/03/10 01:23:39;;;;;;;1.42;0.70;;;;;;;-145.69;34.44;52214.66;5112977;28;20209;-81
2024/03/10 01:26:12;;;;;;;0.63;0.63;;;;;;;-145.69;34.26;52196.84;5112611;28;20274;-81
2024/03/10 01:28:38;;;;;;;0.60;0.50;;;;;;;-145.69;35.06;52196.84;5112389;28;20225;-82
2024/03/10 01:31:05;;;;;;;1.03;0.63;;;;;;;-145.69;34.82;52222.59;5112223;28;20201;-83
2024/03/10 01:33:34;;;;;;;0.40;0.40;;;;;;;-145.69;34.29;52206.75;5132487;27;20200;-82
2024/03/10 01:36:06;;;;;;;5.05;0.60;;;;;;;-145.69;34.59;52204.75;5133023;27;20217;-82
2024/03/10 01:38:32;;;;;;;0.95;0.60;;;;;;;-145.69;35.12;52210.72;5114501;27;20197;-82
2024/03/10 01:40:59;;;;;;;1.42;0.52;;;;;;;-145.69;35.07;52214.66;5112273;28;20190;-82
2024/03/10 01:43:34;;;;;;;1.58;0.50;;;;;;;-145.69;34.83;52218.63;5112316;28;20197;-81
2024/03/10 01:46:06;;;;;;;3.22;0.75;;;;;;;-145.69;35.44;52254.28;5112158;28;20243;-81
2024/03/10 01:48:37;;;;;;;0.52;0.52;;;;;;;-145.69;35.00;52216.66;5111322;28;20225;-81
2024/03/10 01:51:04;;;;;;;0.52;0.52;;;;;;;-145.69;35.12;52230.50;5111861;28;20200;-82
2024/03/10 01:53:34;;;;;;;0.63;0.60;;;;;;;-145.69;35.17;52222.59;5111926;28;20233;-82
2024/03/10 01:56:03;;;;;;;0.57;0.57;;;;;;;-145.69;35.81;52194.88;5112214;28;20209;-81
2024/03/10 01:58:31;;;;;;;0.73;0.57;;;;;;;-145.69;35.19;52224.56;5115892;28;20205;-81
2024/03/10 02:01:01;;;;;;;0.70;0.60;;;;;;;-145.69;35.89;52188.91;5115886;28;20198;-82
2024/03/10 02:03:38;;;;;;;0.70;0.70;;;;;;;-145.69;35.73;52210.72;5120084;27;20206;-82
2024/03/10 02:06:09;;;;;;;0.50;0.50;;;;;;;-145.69;35.70;52230.50;5116025;28;20201;-82
2024/03/10 02:08:39;;;;;;;1.17;0.70;;;;;;;-145.69;35.47;52210.72;5115600;28;20218;-82
2024/03/10 02:11:10;;;;;;;1.13;0.70;;;;;;;-145.69;35.62;52208.72;5115391;28;20220;-81
2024/03/10 02:13:38;;;;;;;1.13;0.80;;;;;;;-145.69;36.19;52214.66;5115836;28;20266;-83
2024/03/10 02:16:13;;;;;;;1.33;0.80;;;;;;;-145.69;36.08;52214.66;5114383;28;20189;-81
2024/03/10 02:18:43;;;;;;;0.70;0.70;;;;;;;-145.69;36.04;52234.47;5115460;28;20217;-81
2024/03/10 02:21:11;;;;;;;0.77;0.70;;;;;;;-145.69;36.22;52226.53;5114914;28;20190;-82
2024/03/10 02:23:47;;;;;;;0.53;0.50;;;;;;;-145.69;36.08;52179.03;5114979;28;20201;-81
2024/03/10 02:26:21;;;;;;;1.27;0.70;;;;;;;-145.69;35.63;52204.75;5115188;28;20205;-82
2024/03/10 02:28:57;;;;;;;0.77;0.68;;;;;;;-145.69;35.97;52181.00;5115046;28;20583;-81
2024/03/10 02:48:13;;;;;;;0.77;0.60;;;;;;;-145.69;37.02;52202.78;5061738;28;20225;-82
2024/03/10 02:50:41;;;;;;;0.87;0.60;;;;;;;-145.69;36.87;52226.53;5112421;28;20239;-81
2024/03/10 02:53:10;;;;;;;1.50;0.73;;;;;;;-145.69;36.87;52222.59;5114844;28;20230;-82
2024/03/10 02:55:37;;;;;;;1.27;0.80;;;;;;;-145.69;37.33;52234.47;5113755;28;20235;-81
2024/03/10 02:58:06;;;;;;;0.70;0.60;;;;;;;-145.69;37.06;52210.72;5114325;28;20200;-81
2024/03/10 03:00:32;;;;;;;1.60;1.00;;;;;;;-145.69;36.78;52190.91;5114529;27;20190;-81
2024/03/10 03:02:59;;;;;;;1.53;0.90;;;;;;;-145.69;37.29;52234.47;5118372;27;20193;-81
2024/03/10 03:05:27;;;;;;;2.97;0.60;;;;;;;-145.69;37.09;52230.50;5114067;27;20201;-80
2024/03/10 03:07:53;;;;;;;1.07;0.80;;;;;;;-145.69;36.96;52230.50;5113748;28;20221;-81
2024/03/10 03:10:20;;;;;;;2.30;0.70;;;;;;;-145.69;37.86;52214.66;5114252;28;20297;-81
2024/03/10 03:12:47;;;;;;;0.87;0.73;;;;;;;-145.69;37.73;52210.72;5114258;28;20200;-81
2024/03/10 03:15:16;;;;;;;1.60;0.80;;;;;;;-145.69;37.33;52190.91;5114568;28;20645;-81
2024/03/10 03:17:43;;;;;;;0.57;0.57;;;;;;;-145.69;37.56;52220.59;5114195;28;20193;-81
2024/03/10 03:20:15;;;;;;;0.63;0.60;;;;;;;-145.69;37.42;52218.63;5114518;28;20202;-81
2024/03/10 03:22:42;;;;;;;0.70;0.70;;;;;;;-145.69;37.17;52222.59;5114488;28;20197;-81
2024/03/10 03:25:11;;;;;;;1.23;0.70;;;;;;;-145.69;37.06;52204.75;5114151;28;20212;-81
2024/03/10 03:27:38;;;;;;;0.93;0.70;;;;;;;-145.69;37.73;52230.50;5114192;28;20223;-81
2024/03/10 03:30:06;;;;;;;0.57;0.50;;;;;;;-145.69;37.55;52218.63;5114446;28;20284;-81
2024/03/10 03:32:34;;;;;;;0.60;0.60;;;;;;;-145.69;38.03;52200.81;5123071;27;20192;-81
2024/03/10 03:35:00;;;;;;;0.97;0.70;;;;;;;-145.69;38.39;52226.53;5132575;27;20205;-81
2024/03/10 03:37:27;;;;;;;1.23;0.70;;;;;;;-145.69;37.77;52248.34;5113404;28;20202;-81
2024/03/10 03:39:54;;;;;;;0.63;0.60;;;;;;;-145.69;37.80;52250.31;5113456;28;20656;-81
2024/03/10 03:42:21;;;;;;;1.63;0.80;;;;;;;-145.69;37.94;52236.44;5113936;28;20201;-82
2024/03/10 03:44:49;;;;;;;1.23;0.80;;;;;;;-145.69;38.03;52218.63;5113705;28;20201;-81
2024/03/10 03:47:17;;;;;;;2.17;0.90;;;;;;;-145.69;38.37;52240.41;5114082;28;20197;-81
2024/03/10 03:49:45;;;;;;;0.90;0.60;;;;;;;-145.69;38.54;52250.31;5113738;28;20229;-81
2024/03/10 03:52:11;;;;;;;2.67;0.70;;;;;;;-145.69;38.45;52188.91;5113228;28;20208;-81
2024/03/10 03:54:39;;;;;;;0.80;0.70;;;;;;;-145.69;38.73;52250.31;5113490;28;20201;-81
2024/03/10 03:57:06;;;;;;;2.50;0.67;;;;;;;-145.69;38.75;52246.34;5113787;28;20220;-81
2024/03/10 03:59:32;;;;;;;1.70;0.90;;;;;;;-145.69;38.73;52250.31;5113293;28;20201;-81
2024/03/10 04:02:00;;;;;;;0.90;0.77;;;;;;;-145.69;38.54;52230.50;5114389;27;20198;-80
2024/03/10 04:04:28;;;;;;;1.13;0.70;;;;;;;-145.69;37.68;52218.63;5113395;28;20190;-81
2024/03/10 04:06:55;;;;;;;1.33;0.80;;;;;;;-145.69;38.18;52230.50;5113336;28;20296;-81
2024/03/10 04:09:22;;;;;;;0.90;0.80;;;;;;;-145.69;37.79;52230.50;5113231;28;20729;-81
2024/03/10 04:11:49;;;;;;;0.63;0.63;;;;;;;-145.69;37.73;52242.38;5113306;28;20204;-81
2024/03/10 04:14:16;;;;;;;1.70;0.60;;;;;;;-145.69;37.55;52258.22;5113426;28;20219;-81
2024/03/10 04:16:44;;;;;;;0.70;0.70;;;;;;;-145.69;37.96;52222.59;5113436;28;20201;-81
2024/03/10 04:19:11;;;;;;;1.20;0.77;;;;;;;-145.69;38.08;52204.75;5113045;28;20201;-81
2024/03/10 04:21:38;;;;;;;0.97;0.87;;;;;;;-145.69;37.46;52244.38;5113308;28;20197;-82
2024/03/10 04:24:09;;;;;;;0.50;0.50;;;;;;;-145.69;37.58;52234.47;5113284;28;20193;-81
2024/03/10 04:26:36;;;;;;;1.83;0.60;;;;;;;-145.69;38.26;52216.66;5112926;28;20193;-81
2024/03/10 04:29:05;;;;;;;0.77;0.63;;;;;;;-145.69;38.12;52222.59;5112777;28;20240;-81
2024/03/10 04:31:32;;;;;;;0.97;0.80;;;;;;;-145.69;37.60;52234.47;5112330;28;20640;-81
2024/03/10 04:33:59;;;;;;;1.17;0.70;;;;;;;-145.69;37.41;52232.50;5112982;28;20204;-80
2024/03/10 04:36:29;;;;;;;0.70;0.70;;;;;;;-145.69;37.45;52244.38;5113032;28;20197;-81
2024/03/10 04:38:55;;;;;;;0.87;0.73;;;;;;;-145.69;36.96;52230.50;5112819;28;20201;-81
2024/03/10 04:41:25;;;;;;;0.70;0.70;;;;;;;-145.69;37.08;52226.53;5113002;28;20198;-81
2024/03/10 04:43:51;;;;;;;0.80;0.77;;;;;;;-145.69;36.75;52214.66;5113194;28;20284;-81
2024/03/10 04:46:18;;;;;;;1.37;0.80;;;;;;;-145.69;37.33;52248.34;5112616;28;20240;-81
2024/03/10 04:48:46;;;;;;;0.90;0.70;;;;;;;-145.69;37.18;52198.81;5126241;28;20224;-81
2024/03/10 04:51:14;;;;;;;1.30;0.63;;;;;;;-145.69;36.87;52224.56;5112600;28;20674;-81
2024/03/10 04:53:42;;;;;;;0.70;0.70;;;;;;;-145.69;37.27;52198.81;5112602;28;20232;-81
2024/03/10 04:56:11;;;;;;;0.53;0.53;;;;;;;-145.69;36.96;52238.44;5112618;27;20664;-81
2024/03/10 04:58:39;;;;;;;2.57;0.70;;;;;;;-145.69;37.42;52224.56;5113088;28;20248;-81
2024/03/10 05:01:08;;;;;;;0.70;0.70;;;;;;;-145.69;37.65;52222.59;5112928;27;20224;-81
2024/03/10 05:03:38;;;;;;;1.47;0.80;;;;;;;-145.69;37.99;52218.63;5112871;28;20284;-81
2024/03/10 05:06:09;;;;;;;1.00;0.60;;;;;;;-145.69;37.76;52246.34;5115231;28;20202;-81
2024/03/10 05:08:37;;;;;;;1.03;0.77;;;;;;;-145.69;37.54;52222.59;5117438;28;20256;-81
2024/03/10 05:11:04;;;;;;;0.60;0.60;;;;;;;-145.69;37.50;52226.53;5120123;27;20683;-81
2024/03/10 05:13:34;;;;;;;0.60;0.60;;;;;;;-145.69;37.52;52238.44;5112436;28;20229;-82
2024/03/10 05:16:03;;;;;;;0.70;0.70;;;;;;;-145.69;37.65;52222.59;5112542;28;20667;-81
2024/03/10 05:18:31;;;;;;;1.00;0.80;;;;;;;-145.69;37.52;52222.59;5112445;28;20209;-81
2024/03/10 05:20:57;;;;;;;1.27;0.67;;;;;;;-145.69;37.83;52218.63;5112171;28;20253;-81
2024/03/10 05:23:35;;;;;;;1.03;0.77;;;;;;;-145.69;37.73;52222.59;5112756;28;20205;-81
2024/03/10 05:26:05;;;;;;;3.20;0.80;;;;;;;-145.69;38.20;52214.66;5112788;28;20215;-82
2024/03/10 05:28:32;;;;;;;0.80;0.70;;;;;;;-145.69;38.44;52258.22;5112376;28;20232;-82
2024/03/10 05:30:58;;;;;;;0.80;0.60;;;;;;;-145.69;38.34;52224.56;5112533;28;20198;-82
2024/03/10 05:33:26;;;;;;;0.70;0.70;;;;;;;-145.69;38.41;52222.59;5116468;28;20201;-81
2024/03/10 05:35:53;;;;;;;1.00;0.70;;;;;;;-145.69;37.84;52234.47;5116413;28;20197;-81
2024/03/10 05:38:21;;;;;;;0.83;0.70;;;;;;;-145.69;37.86;52246.34;5116271;27;20236;-81
2024/03/10 05:40:51;;;;;;;0.80;0.80;;;;;;;-145.69;37.78;52218.63;5115914;28;20552;-81
2024/03/10 05:43:19;;;;;;;0.60;0.60;;;;;;;-145.69;37.80;52194.88;5116190;28;20247;-81
2024/03/10 05:45:46;;;;;;;1.20;0.70;;;;;;;-145.69;37.47;52236.44;5116165;27;20296;-81
2024/03/10 05:48:15;;;;;;;1.07;0.97;;;;;;;-145.69;36.96;52226.53;5115750;28;20200;-82
2024/03/10 05:50:45;;;;;;;1.27;0.77;;;;;;;-145.69;37.37;52234.47;5116219;28;20254;-82
2024/03/10 05:53:15;;;;;;;1.17;1.00;;;;;;;-145.69;37.03;52218.63;5115911;28;20225;-82
2024/03/10 05:55:41;;;;;;;0.63;0.60;;;;;;;-145.69;37.09;52230.50;5115870;28;20197;-82
2024/03/10 05:58:09;;;;;;;1.03;0.70;;;;;;;-145.69;37.34;52244.38;5115539;28;20624;-83
2024/03/10 06:00:42;;;;;;;1.43;0.80;;;;;;;-145.69;36.32;52242.38;5116236;28;20202;-81
2024/03/10 06:03:09;;;;;;;1.00;0.90;;;;;;;-145.69;36.64;52206.75;5116137;28;20212;-81
2024/03/10 06:05:42;;;;;;;1.00;0.90;;;;;;;-145.69;35.60;52228.53;5115255;28;20653;-80
2024/03/10 06:08:10;;;;;;;0.60;0.60;;;;;;;-145.69;35.46;52220.59;5119140;27;20197;-80
2024/03/10 06:10:39;;;;;;;1.00;0.93;;;;;;;-145.69;35.03;52208.72;5115899;27;20277;-81
2024/03/10 06:13:06;;;;;;;1.97;0.80;;;;;;;-145.69;35.26;52226.53;5115990;28;20250;-80
2024/03/10 06:15:33;;;;;;;1.67;0.90;;;;;;;-145.69;35.56;52244.38;5115758;28;20197;-81
2024/03/10 06:18:04;;;;;;;0.80;0.77;;;;;;;-145.69;35.77;52198.81;5115280;28;20225;-80
2024/03/10 06:26:00;;;;;;;1.03;0.80;;;;;;;-145.69;35.31;52179.03;5115336;28;20319;-81
2024/03/10 06:28:27;;;;;;;0.90;0.70;;;;;;;-145.69;35.13;52222.59;5115449;28;20208;-81
2024/03/10 06:30:58;;;;;;;2.13;0.83;;;;;;;-145.69;34.96;52210.72;5115295;28;20206;-81
2024/03/10 06:33:24;;;;;;;1.30;0.90;;;;;;;-145.69;34.67;52198.81;5115175;28;20196;-81
2024/03/10 06:35:51;;;;;;;1.27;0.70;;;;;;;-145.69;34.79;52186.94;5115129;28;20206;-81
2024/03/10 06:38:22;;;;;;;1.35;0.70;;;;;;;-145.69;34.69;52230.50;5130682;27;20236;-83
2024/03/10 06:40:48;;;;;;;2.70;1.10;;;;;;;-145.69;34.39;52230.50;5115226;28;20206;-82
2024/03/10 06:43:15;;;;;;;0.90;0.80;;;;;;;-145.69;34.58;52214.66;5114962;28;20202;-82
2024/03/10 06:45:42;;;;;;;1.35;0.82;;;;;;;-145.69;34.77;52196.84;5115000;28;20203;-82
2024/03/10 06:48:09;;;;;;;0.98;0.80;;;;;;;-145.69;34.80;52182.97;5114672;28;20201;-81
2024/03/10 06:50:38;;;;;;;1.23;0.87;;;;;;;-145.69;34.90;52192.88;5114410;28;20663;-81
2024/03/10 06:53:04;;;;;;;0.95;0.70;;;;;;;-145.69;34.58;52184.97;5115177;27;20225;-81
2024/03/10 06:55:33;;;;;;;1.33;0.77;;;;;;;-145.69;34.70;52218.63;5114307;27;20256;-82
2024/03/10 06:58:01;;;;;;;0.93;0.70;;;;;;;-145.69;34.62;52181.00;5115182;28;20205;-82
2024/03/10 07:00:29;;;;;;;4.43;0.83;;;;;;;-145.69;35.03;52228.53;5114965;28;20197;-81
2024/03/10 07:02:55;;;;;;;1.43;0.90;;;;;;;-145.69;34.95;52210.72;5114469;28;20197;-82
2024/03/10 07:05:24;;;;;;;1.00;0.90;;;;;;;-145.69;35.18;52214.66;5114725;28;20236;-81
2024/03/10 07:07:53;;;;;;;0.73;0.73;;;;;;;-145.69;34.65;52218.63;5117999;27;20228;-82
2024/03/10 07:10:22;;;;;;;1.33;0.70;;;;;;;-145.69;35.41;52228.53;5132891;27;20306;-81
2024/03/10 07:12:51;;;;;;;1.27;0.80;;;;;;;-145.69;34.96;52210.72;5134938;27;20201;-81
2024/03/10 07:15:18;;;;;;;1.25;0.70;;;;;;;-145.69;35.50;52167.13;5127344;27;20280;-83
2024/03/10 07:17:47;;;;;;;0.80;0.80;;;;;;;-145.69;35.37;52184.97;5114702;28;20202;-82
2024/03/10 07:20:16;;;;;;;1.33;0.70;;;;;;;-145.69;35.12;52212.69;5114326;28;20297;-81
2024/03/10 07:22:43;;;;;;;1.45;1.00;;;;;;;-145.69;35.52;52202.78;5114254;28;20197;-81
2024/03/10 07:25:10;;;;;;;1.47;1.00;;;;;;;-145.69;34.93;52186.94;5114430;28;20193;-82
2024/03/10 07:27:37;;;;;;;0.80;0.80;;;;;;;-145.69;34.83;52179.03;5112909;28;20216;-82
2024/03/10 07:30:06;;;;;;;1.23;0.93;;;;;;;-145.69;34.57;52188.91;5113138;28;20229;-83
2024/03/10 07:32:36;;;;;;;0.93;0.80;;;;;;;-145.69;35.08;52171.09;5114418;28;20207;-81
2024/03/10 07:35:04;;;;;;;2.53;0.93;;;;;;;-145.69;34.51;52186.94;5113876;28;20204;-81
2024/03/10 07:37:31;;;;;;;0.60;0.60;;;;;;;-145.69;34.58;52218.63;5115395;28;20202;-82
2024/03/10 07:39:57;;;;;;;1.30;0.90;;;;;;;-145.69;34.40;52184.97;5113504;28;20552;-82
2024/03/10 07:42:24;;;;;;;1.33;0.90;;;;;;;-145.69;34.24;52198.81;5113947;28;20201;-81
2024/03/10 07:44:54;;;;;;;1.45;0.80;;;;;;;-145.69;34.51;52163.19;5114081;28;20198;-81
2024/03/10 07:47:25;;;;;;;1.35;0.82;;;;;;;-145.69;34.83;52179.03;5113850;28;20194;-82
2024/03/10 07:49:57;;;;;;;0.70;0.70;;;;;;;-145.69;34.21;52181.00;5114042;28;20228;-82
2024/03/10 07:52:24;;;;;;;0.98;0.88;;;;;;;-145.69;34.50;52143.38;5113718;27;20237;-81
2024/03/10 07:54:59;;;;;;;1.48;0.60;;;;;;;-145.69;34.47;52165.16;5113147;27;20204;-82
2024/03/10 07:57:28;;;;;;;0.77;0.75;;;;;;;-145.69;34.76;52173.09;5113964;28;20197;-82
2024/03/10 07:59:56;;;;;;;2.92;0.75;;;;;;;-145.69;34.44;52175.06;5113530;28;20645;-82
2024/03/10 08:02:27;;;;;;;0.80;0.70;;;;;;;-145.69;34.41;52181.00;5113667;28;20197;-81
2024/03/10 08:04:54;;;;;;;3.67;1.13;;;;;;;-145.69;34.32;52171.09;5113415;28;20235;-82
2024/03/10 08:07:21;;;;;;;1.73;0.85;;;;;;;-145.69;34.03;52157.25;5117432;27;20267;-82
2024/03/10 08:09:47;;;;;;;1.27;0.70;;;;;;;-145.69;34.34;52149.31;5133801;27;20552;-81
2024/03/10 08:12:18;;;;;;;1.02;0.77;;;;;;;-145.69;34.46;52157.25;5134152;27;20264;-82
2024/03/10 08:14:54;;;;;;;1.35;0.77;;;;;;;-145.69;34.48;52153.28;5133770;27;20555;-82
2024/03/10 08:17:24;;;;;;;1.00;0.80;;;;;;;-145.69;34.49;52167.13;5133422;27;20211;-83
2024/03/10 08:19:53;;;;;;;1.23;0.77;;;;;;;-145.69;34.33;52161.19;5115443;27;20225;-82
2024/03/10 08:22:22;;;;;;;0.98;0.70;;;;;;;-145.69;34.44;52151.28;5113191;28;20227;-82
2024/03/10 08:24:49;;;;;;;1.33;0.75;;;;;;;-145.69;34.84;52157.25;5113086;28;20193;-79
2024/03/10 08:27:18;;;;;;;1.83;0.55;;;;;;;-145.69;34.81;52157.25;5112402;28;20201;-82
2024/03/10 08:29:47;;;;;;;3.60;0.80;;;;;;;-145.69;34.17;52190.91;5113397;28;20233;-80
2024/03/10 08:32:15;;;;;;;1.15;0.88;;;;;;;-145.69;34.06;52153.28;5113099;28;20280;-81
2024/03/10 08:34:47;;;;;;;1.17;0.60;;;;;;;-145.69;34.60;52151.28;5113572;28;20236;-81
2024/03/10 08:37:16;;;;;;;1.73;0.70;;;;;;;-145.69;34.88;52123.56;5112806;28;20288;-82
2024/03/10 08:39:44;;;;;;;1.70;0.93;;;;;;;-145.69;34.27;52159.22;5113706;28;20208;-83
2024/03/10 08:42:12;;;;;;;1.00;0.68;;;;;;;-145.69;34.33;52125.56;5112821;28;20193;-83
2024/03/10 08:44:39;;;;;;;0.73;0.73;;;;;;;-145.69;34.03;52159.22;5113559;28;20281;-81
2024/03/10 08:47:07;;;;;;;0.90;0.80;;;;;;;-145.69;33.92;52151.28;5113302;28;20211;-82
2024/03/10 08:49:33;;;;;;;1.65;0.80;;;;;;;-145.69;33.57;52115.66;5113166;28;20278;-80
2024/03/10 08:52:01;;;;;;;1.05;0.60;;;;;;;-145.69;33.46;52123.56;5113139;28;20201;-80
2024/03/10 08:54:33;;;;;;;0.93;0.82;;;;;;;-145.69;33.69;52149.31;5113001;28;20233;-80
2024/03/10 08:57:04;;;;;;;0.80;0.70;;;;;;;-145.69;33.54;52143.38;5112924;28;20209;-80
2024/03/10 08:59:31;;;;;;;1.92;0.90;;;;;;;-145.69;33.79;52135.47;5112836;28;20629;-83
2024/03/10 09:01:57;;;;;;;1.60;0.90;;;;;;;-145.69;33.61;52145.34;5112854;28;20673;-82
2024/03/10 09:04:24;;;;;;;4.13;1.20;;;;;;;-145.69;33.90;52151.28;5113060;28;20288;-80
2024/03/10 09:06:54;;;;;;;2.38;0.80;;;;;;;-145.69;34.00;52115.66;5115836;28;20197;-80
2024/03/10 09:09:22;;;;;;;1.17;0.90;;;;;;;-145.69;33.73;52111.69;5135480;27;20690;-80
2024/03/10 09:11:51;;;;;;;0.77;0.77;;;;;;;-145.69;33.18;52129.50;5138012;27;20197;-81
2024/03/10 09:14:19;;;;;;;1.20;0.70;;;;;;;-145.69;33.29;52153.28;5137684;27;20852;-81
2024/03/10 09:16:45;;;;;;;0.82;0.73;;;;;;;-145.69;33.21;52139.41;5125458;27;20209;-81
2024/03/10 09:19:12;;;;;;;1.13;0.70;;;;;;;-145.69;33.44;52103.78;5116615;28;20204;-81
2024/03/10 09:21:38;;;;;;;0.85;0.60;;;;;;;-145.69;34.00;52129.50;5117156;28;20204;-80
2024/03/10 09:24:05;;;;;;;0.60;0.60;;;;;;;-145.69;33.15;52119.63;5117115;28;20208;-81
2024/03/10 09:26:33;;;;;;;0.50;0.50;;;;;;;-145.69;33.38;52087.94;5116511;28;20207;-81
2024/03/10 09:29:01;;;;;;;0.88;0.88;;;;;;;-145.69;32.61;52143.38;5116933;27;20210;-81
2024/03/10 09:31:27;;;;;;;2.65;1.00;;;;;;;-145.69;32.56;52089.91;5116423;28;20217;-81
2024/03/10 09:33:54;;;;;;;2.40;0.88;;;;;;;-145.69;32.53;52131.50;5116771;28;20197;-82
2024/03/10 09:36:20;;;;;;;1.20;0.70;;;;;;;-145.69;32.49;52115.66;5116608;28;20207;-82
2024/03/10 09:38:47;;;;;;;0.70;0.65;;;;;;;-145.69;32.66;52113.66;5119976;27;20201;-80
2024/03/10 09:41:15;;;;;;;0.93;0.60;;;;;;;-145.69;31.89;52105.75;5116624;28;20632;-82
2024/03/10 09:43:44;;;;;;;0.75;0.68;;;;;;;-145.69;31.86;52091.88;5116589;28;20201;-82
2024/03/10 09:46:13;;;;;;;0.70;0.40;;;;;;;-145.69;32.17;52117.63;5116408;28;20196;-81
2024/03/10 09:48:45;;;;;;;0.40;0.40;;;;;;;-145.69;31.30;52099.81;5116523;28;20205;-80
2024/03/10 09:51:13;;;;;;;0.98;0.43;;;;;;;-145.69;32.04;52083.97;5116462;28;20292;-80
2024/03/10 09:53:40;;;;;;;0.40;0.40;;;;;;;-145.69;31.38;52091.88;5115930;28;20276;-80
2024/03/10 09:56:08;;;;;;;0.40;0.40;;;;;;;-145.69;32.05;52083.97;5116205;27;20206;-81
2024/03/10 09:58:41;;;;;;;0.52;0.50;;;;;;;-145.69;31.73;52091.88;5116405;28;20197;-81
2024/03/10 10:01:18;;;;;;;0.40;0.40;;;;;;;-145.69;31.14;52103.78;5116237;28;20205;-81
2024/03/10 10:03:49;;;;;;;0.93;0.60;;;;;;;-145.69;30.60;52074.06;5116248;28;20201;-80
2024/03/10 10:06:17;;;;;;;0.60;0.60;;;;;;;-145.69;31.24;52109.72;5115743;28;20201;-81
2024/03/10 10:08:45;;;;;;;0.40;0.40;;;;;;;-145.69;31.05;52099.81;5119372;27;20643;-80
2024/03/10 10:11:13;;;;;;;0.57;0.47;;;;;;;-145.69;30.96;52044.38;5116134;28;20233;-80
2024/03/10 10:13:40;;;;;;;0.47;0.30;;;;;;;-145.69;30.68;52131.50;5115852;27;20229;-81
2024/03/10 10:16:10;;;;;;;0.45;0.40;;;;;;;-145.69;30.77;52099.81;5115901;28;20189;-80
2024/03/10 10:18:37;;;;;;;54.47;21.20;;;;;;;-145.69;31.29;52064.16;5115107;27;20651;-80
2024/03/10 10:21:07;;;;;;;14.40;4.95;;;;;;;-145.69;31.44;52076.03;5116021;28;20209;-80
2024/03/10 10:23:35;;;;;;;3.55;1.52;;;;;;;-145.69;31.22;52068.13;5116074;28;20212;-79
2024/03/10 10:26:09;;;;;;;1.10;0.88;;;;;;;-145.69;30.86;52072.09;5115454;28;20288;-81
2024/03/10 10:28:37;;;;;;;2.03;1.10;;;;;;;-145.69;31.16;52074.06;5113767;28;20197;-80
2024/03/10 10:31:13;;;;;;;1.00;0.73;;;;;;;-145.69;31.12;52082.00;5115138;28;20311;-80
2024/03/10 10:33:45;;;;;;;2.00;1.10;;;;;;;-145.69;31.08;52072.09;5115821;28;20201;-79
2024/03/10 10:36:12;;;;;;;3.55;1.10;;;;;;;-145.69;30.78;52070.09;5114456;28;20274;-78
2024/03/10 10:38:44;;;;;;;2.70;1.65;;;;;;;-145.69;31.05;52032.47;5115079;27;20553;-81
2024/03/10 10:41:10;;;;;;;126.95;33.47;;;;;;;-145.69;32.80;52064.16;5115726;27;20529;-80
2024/03/10 10:43:38;;;;;;;9.40;3.17;;;;;;;-145.69;33.46;52070.09;5114911;27;20216;-80
2024/03/10 10:46:06;;;;;;;3.38;1.88;;;;;;;-145.69;33.49;52068.13;5115110;28;20202;-80
2024/03/10 10:48:34;;;;;;;3.50;2.30;;;;;;;-145.69;34.47;52062.19;5115269;27;20201;-82
2024/03/10 10:51:01;;;;;;;6.93;2.40;;;;;;;-145.69;34.75;52074.06;5108995;27;20283;-81
2024/03/10 10:53:27;;;;;;;3.75;2.15;;;;;;;-145.69;34.30;52066.16;5094813;28;20241;-81
2024/03/10 10:55:54;;;;;;;4.60;2.13;;;;;;;-145.69;34.54;52048.31;5097943;27;20202;-80
2024/03/10 10:58:24;;;;;;;3.15;1.58;;;;;;;-145.69;34.83;52076.03;5094771;28;20201;-80
2024/03/10 11:00:53;;;;;;;3.55;2.00;;;;;;;-145.69;35.01;52066.16;5094845;28;20293;-82
2024/03/10 11:03:24;;;;;;;3.53;1.95;;;;;;;-145.69;35.32;52087.94;5094591;28;20206;-81
2024/03/10 11:06:25;;;;;;;4.28;1.60;;;;;;;-145.69;34.77;52060.22;5094320;28;20243;-79
2024/03/10 11:08:55;;;;;;;4.28;2.08;;;;;;;-145.69;34.03;52087.94;5107699;28;20537;-80
2024/03/10 11:11:45;;;;;;;6.35;1.88;;;;;;;-145.69;34.11;52082.00;5114945;28;20312;-79
2024/03/10 11:14:13;;;;;;;2.78;1.55;;;;;;;-145.69;34.18;52080.00;5106575;28;20194;-80
2024/03/10 11:16:40;;;;;;;4.30;1.90;;;;;;;-145.69;34.03;52068.13;5109216;28;20198;-80
2024/03/10 11:19:21;;;;;;;6.80;1.42;;;;;;;-145.69;33.66;52046.34;5114620;28;20208;-81
2024/03/10 11:21:49;;;;;;;2.78;1.48;;;;;;;-145.69;33.66;52072.09;5113681;28;20682;-81
2024/03/10 11:24:20;;;;;;;4.15;2.03;;;;;;;-145.69;34.12;52060.22;5114726;28;20201;-81
2024/03/10 11:26:47;;;;;;;2.63;1.80;;;;;;;-145.69;34.33;52060.22;5114718;28;20218;-81
2024/03/10 11:29:26;;;;;;;17.08;11.43;;;;;;;-145.69;34.11;52083.97;5113532;28;20311;-81
2024/03/10 11:31:56;;;;;;;5.82;3.97;;;;;;;-145.69;34.31;52076.03;5114349;28;20224;-81
2024/03/10 11:34:24;;;;;;;3.78;1.80;;;;;;;-145.69;35.18;52052.28;5114504;28;20204;-81
2024/03/10 11:36:51;;;;;;;3.30;1.70;;;;;;;-145.69;34.85;52087.94;5114028;28;20671;-81
2024/03/10 11:39:21;;;;;;;3.67;2.10;;;;;;;-145.69;34.58;52056.25;5114345;28;20204;-81
2024/03/10 11:41:49;;;;;;;4.07;1.98;;;;;;;-145.69;34.03;52028.53;5114119;28;20232;-81
2024/03/10 11:44:16;;;;;;;3.55;2.10;;;;;;;-145.69;34.44;52099.81;5113810;28;20197;-81
2024/03/10 11:46:43;;;;;;;4.07;2.10;;;;;;;-145.69;34.83;52080.00;5114238;28;20193;-81